createdAt,value
2018-07-14T00:02:27.670Z,101634.40
2018-07-14T00:04:55.832Z,101636.56
2018-07-14T00:07:23.985Z,101640.02
2018-07-14T00:09:52.146Z,101631.81
2018-07-14T00:12:20.351Z,101636.45
2018-07-14T00:14:48.480Z,101628.18
2018-07-14T00:17:16.612Z,101626.20
2018-07-14T00:19:44.718Z,101623.85
2018-07-14T00:22:12.792Z,101620.67
2018-07-14T00:24:40.887Z,101616.27
2018-07-14T00:27:09.025Z,101619.77
2018-07-14T00:29:37.160Z,101620.42
2018-07-14T00:32:05.286Z,101620.55
2018-07-14T00:34:33.398Z,101625.99
2018-07-14T00:37:01.500Z,101622.12
2018-07-14T00:39:29.663Z,101622.44
2018-07-14T00:41:57.761Z,101624.23
2018-07-14T00:44:25.872Z,101628.51
2018-07-14T00:46:53.972Z,101626.93
2018-07-14T00:49:22.220Z,101625.45
2018-07-14T00:51:50.335Z,101622.36
2018-07-14T00:54:18.506Z,101619.20
2018-07-14T00:56:46.949Z,101627.70
2018-07-14T00:59:15.035Z,101628.35
2018-07-14T01:01:43.252Z,101630.31
2018-07-14T01:04:11.369Z,101625.03
2018-07-14T01:06:39.516Z,101621.66
2018-07-14T01:09:08.036Z,101618.88
2018-07-14T01:11:36.152Z,101617.14
2018-07-14T01:14:04.362Z,101620.27
2018-07-14T01:16:32.512Z,101619.39
2018-07-14T01:19:00.645Z,101625.13
2018-07-14T01:21:28.740Z,101625.49
2018-07-14T01:23:56.895Z,101621.62
2018-07-14T01:26:24.985Z,101630.52
2018-07-14T01:28:53.107Z,101623.59
2018-07-14T01:31:21.242Z,101629.95
2018-07-14T01:33:49.336Z,101625.90
2018-07-14T01:36:17.510Z,101618.95
2018-07-14T01:38:45.617Z,101624.65
2018-07-14T01:41:13.745Z,101626.11
2018-07-14T01:43:42.060Z,101626.35
2018-07-14T01:46:10.178Z,101625.24
2018-07-14T01:48:38.282Z,101624.48
2018-07-14T01:51:06.436Z,101617.77
2018-07-14T01:53:34.579Z,101621.69
2018-07-14T01:56:02.714Z,101618.23
2018-07-14T01:58:30.832Z,101618.22
2018-07-14T02:00:58.959Z,101613.28
2018-07-14T02:03:27.091Z,101620.38
2018-07-14T02:05:55.185Z,101622.78
2018-07-14T02:08:23.290Z,101622.86
2018-07-14T02:10:51.389Z,101621.91
2018-07-14T02:13:19.456Z,101621.84
2018-07-14T02:15:47.567Z,101619.94
2018-07-14T02:18:15.686Z,101619.16
2018-07-14T02:20:43.784Z,101624.01
2018-07-14T02:23:11.862Z,101631.05
2018-07-14T02:25:39.965Z,101628.58
2018-07-14T02:28:08.138Z,101632.59
2018-07-14T02:30:36.305Z,101633.36
2018-07-14T02:33:04.411Z,101635.83
2018-07-14T02:35:32.516Z,101631.59
2018-07-14T02:38:00.614Z,101634.58
2018-07-14T02:40:28.729Z,101629.89
2018-07-14T02:42:56.832Z,101628.20
2018-07-14T02:45:25.127Z,101633.12
2018-07-14T02:47:53.340Z,101628.02
2018-07-14T02:50:21.461Z,101617.95
2018-07-14T02:52:49.624Z,101622.33
2018-07-14T02:55:17.726Z,101616.13
2018-07-14T02:57:45.853Z,101616.78
2018-07-14T03:00:14.005Z,101613.73
2018-07-14T03:02:42.148Z,101609.76
2018-07-14T03:05:10.348Z,101605.20
2018-07-14T03:07:38.509Z,101610.22
2018-07-14T03:10:06.688Z,101608.59
2018-07-14T03:12:34.825Z,101614.62
2018-07-14T03:15:02.994Z,101618.10
2018-07-14T03:17:31.188Z,101618.10
2018-07-14T03:19:59.336Z,101617.77
2018-07-14T03:22:27.454Z,101620.01
2018-07-14T03:24:55.651Z,101618.77
2018-07-14T03:27:23.798Z,101620.94
2018-07-14T03:29:52.440Z,101620.01
2018-07-14T03:32:20.569Z,101619.74
2018-07-14T03:34:48.689Z,101620.20
2018-07-14T03:37:16.798Z,101617.97
2018-07-14T03:39:44.945Z,101617.25
2018-07-14T03:42:13.072Z,101620.81
2018-07-14T03:44:41.233Z,101623.25
2018-07-14T03:47:09.391Z,101624.16
2018-07-14T03:49:37.620Z,101629.59
2018-07-14T03:52:05.820Z,101628.88
2018-07-14T03:54:34.108Z,101621.30
2018-07-14T03:57:02.338Z,101625.32
2018-07-14T03:59:30.444Z,101620.47
2018-07-14T04:01:58.638Z,101618.52
2018-07-14T04:04:26.831Z,101616.36
2018-07-14T04:06:55.011Z,101618.88
2018-07-14T04:09:23.146Z,101616.37
2018-07-14T04:11:51.289Z,101622.02
2018-07-14T04:14:19.414Z,101609.79
2018-07-14T04:16:47.592Z,101619.47
2018-07-14T04:19:15.768Z,101621.16
2018-07-14T04:21:43.928Z,101620.97
2018-07-14T04:24:12.038Z,101607.84
2018-07-14T04:26:40.178Z,101618.80
2018-07-14T04:29:08.310Z,101618.91
2018-07-14T04:31:36.480Z,101617.34
2018-07-14T04:34:04.572Z,101620.88
2018-07-14T04:36:32.684Z,101624.01
2018-07-14T04:39:00.784Z,101621.67
2018-07-14T04:41:28.901Z,101620.44
2018-07-14T04:43:57.027Z,101619.03
2018-07-14T04:46:25.156Z,101616.02
2018-07-14T04:48:53.271Z,101618.50
2018-07-14T04:51:21.395Z,101619.55
2018-07-14T04:53:49.486Z,101617.48
2018-07-14T04:56:17.604Z,101618.44
2018-07-14T04:58:45.736Z,101623.14
2018-07-14T05:01:13.886Z,101623.42
2018-07-14T05:03:41.990Z,101615.05
2018-07-14T05:06:10.128Z,101620.14
2018-07-14T05:08:38.248Z,101620.05
2018-07-14T05:11:06.523Z,101620.28
2018-07-14T05:13:34.709Z,101629.13
2018-07-14T05:16:02.865Z,101623.07
2018-07-14T05:18:31.020Z,101628.55
2018-07-14T05:20:59.120Z,101629.02
2018-07-14T05:23:27.222Z,101630.15
2018-07-14T05:25:55.334Z,101628.85
2018-07-14T05:28:23.481Z,101628.55
2018-07-14T05:30:51.591Z,101634.29
2018-07-14T05:33:19.710Z,101632.51
2018-07-14T05:35:48.628Z,101636.19
2018-07-14T05:38:16.772Z,101632.30
2018-07-14T05:40:44.928Z,101638.07
2018-07-14T05:43:13.092Z,101638.23
2018-07-14T05:45:41.251Z,101643.13
2018-07-14T05:48:09.392Z,101650.10
2018-07-14T05:50:37.512Z,101651.02
2018-07-14T05:53:05.690Z,101643.70
2018-07-14T05:55:33.869Z,101646.80
2018-07-14T05:58:02.046Z,101642.94
2018-07-14T06:00:30.219Z,101650.83
2018-07-14T06:02:58.387Z,101653.09
2018-07-14T06:05:26.549Z,101650.45
2018-07-14T06:07:54.728Z,101653.52
2018-07-14T06:10:22.890Z,101661.61
2018-07-14T06:12:51.077Z,101658.70
2018-07-14T06:15:19.236Z,101659.83
2018-07-14T06:17:47.411Z,101664.06
2018-07-14T06:20:15.542Z,101660.38
2018-07-14T06:22:43.756Z,101661.14
2018-07-14T06:25:11.938Z,101662.15
2018-07-14T06:27:40.068Z,101662.72
2018-07-14T06:30:08.580Z,101654.89
2018-07-14T06:32:36.756Z,101664.37
2018-07-14T06:35:04.935Z,101663.30
2018-07-14T06:37:33.061Z,101663.84
2018-07-14T06:40:01.186Z,101667.77
2018-07-14T06:42:29.331Z,101672.08
2018-07-14T06:44:57.914Z,101675.27
2018-07-14T06:47:26.087Z,101674.24
2018-07-14T06:49:54.240Z,101672.58
2018-07-14T06:52:22.361Z,101676.78
2018-07-14T06:54:50.489Z,101665.70
2018-07-14T06:57:18.612Z,101666.75
2018-07-14T06:59:46.720Z,101669.28
2018-07-14T07:02:14.848Z,101673.58
2018-07-14T07:04:43.002Z,101666.26
2018-07-14T07:07:11.174Z,101664.92
2018-07-14T07:09:39.347Z,101672.92
2018-07-14T07:12:07.541Z,101666.97
2018-07-14T07:14:35.717Z,101672.39
2018-07-14T07:17:03.891Z,101675.06
2018-07-14T07:19:32.017Z,101677.02
2018-07-14T07:22:00.168Z,101681.26
2018-07-14T07:24:28.298Z,101688.85
2018-07-14T07:26:56.617Z,101684.00
2018-07-14T07:29:24.765Z,101686.97
2018-07-14T07:31:52.909Z,101690.20
2018-07-14T07:34:21.070Z,101690.87
2018-07-14T07:36:49.271Z,101693.12
2018-07-14T07:39:17.423Z,101696.32
2018-07-14T07:41:45.598Z,101698.78
2018-07-14T07:44:13.762Z,101710.70
2018-07-14T07:46:41.887Z,101710.52
2018-07-14T07:49:10.111Z,101706.73
2018-07-14T07:51:38.319Z,101709.95
2018-07-14T07:54:06.635Z,101713.88
2018-07-14T07:56:34.836Z,101711.27
2018-07-14T07:59:03.013Z,101711.90
2018-07-14T08:01:31.163Z,101709.45
2018-07-14T08:03:59.409Z,101706.72
2018-07-14T08:06:27.588Z,101710.41
2018-07-14T08:08:55.780Z,101699.33
2018-07-14T08:11:23.961Z,101706.89
2018-07-14T08:13:52.284Z,101709.98
2018-07-14T08:16:21.387Z,101710.56
2018-07-14T08:18:49.537Z,101714.09
2018-07-14T08:21:17.620Z,101710.89
2018-07-14T08:23:46.097Z,101706.15
2018-07-14T08:26:14.220Z,101707.95
2018-07-14T08:28:42.389Z,101704.11
2018-07-14T08:31:10.575Z,101704.55
2018-07-14T08:33:38.691Z,101710.72
2018-07-14T08:36:06.848Z,101710.26
2018-07-14T08:38:35.001Z,101719.92
2018-07-14T08:41:04.134Z,101716.84
2018-07-14T08:43:32.300Z,101710.77
2018-07-14T08:46:00.491Z,101710.97
2018-07-14T08:48:28.712Z,101708.69
2018-07-14T08:50:56.947Z,101708.14
2018-07-14T08:53:25.085Z,101698.36
2018-07-14T08:55:53.308Z,101702.59
2018-07-14T08:58:25.593Z,101704.05
2018-07-14T09:00:53.791Z,101698.71
2018-07-14T09:03:21.968Z,101698.61
2018-07-14T09:05:50.164Z,101697.22
2018-07-14T09:08:18.303Z,101700.83
2018-07-14T09:10:46.453Z,101698.92
2018-07-14T09:13:14.641Z,101700.34
2018-07-14T09:15:42.808Z,101692.98
2018-07-14T09:18:10.922Z,101702.25
2018-07-14T09:20:39.008Z,101710.05
2018-07-14T09:23:07.200Z,101716.78
2018-07-14T09:25:35.301Z,101713.12
2018-07-14T09:28:03.433Z,101711.66
2018-07-14T09:30:31.617Z,101715.22
2018-07-14T09:32:59.777Z,101717.99
2018-07-14T09:35:27.972Z,101718.47
2018-07-14T09:37:56.415Z,101714.24
2018-07-14T09:40:24.479Z,101713.39
2018-07-14T09:42:52.744Z,101713.70
2018-07-14T09:45:20.868Z,101708.33
2018-07-14T09:47:49.107Z,101712.51
2018-07-14T09:50:17.250Z,101709.50
2018-07-14T09:52:45.441Z,101704.47
2018-07-14T09:55:13.615Z,101714.08
2018-07-14T09:57:41.733Z,101717.98
2018-07-14T10:00:14.049Z,101711.05
2018-07-14T10:02:42.238Z,101721.42
2018-07-14T10:05:10.342Z,101716.02
2018-07-14T10:07:38.529Z,101719.53
2018-07-14T10:10:06.840Z,101711.69
2018-07-14T10:12:34.921Z,101713.98
2018-07-14T10:15:03.249Z,101708.02
2018-07-14T10:17:31.292Z,101706.38
2018-07-14T10:19:59.410Z,101714.30
2018-07-14T10:22:27.501Z,101709.65
2018-07-14T10:24:55.653Z,101702.75
2018-07-14T10:27:23.771Z,101709.14
2018-07-14T10:29:51.873Z,101712.47
2018-07-14T10:32:19.977Z,101707.19
2018-07-14T10:34:48.109Z,101711.17
2018-07-14T10:37:16.347Z,101706.09
2018-07-14T10:39:46.695Z,101715.13
2018-07-14T10:42:20.425Z,101711.59
2018-07-14T10:44:50.937Z,101707.59
2018-07-14T10:47:19.196Z,101705.86
2018-07-14T10:49:47.474Z,101700.16
2018-07-14T10:52:15.622Z,101700.23
2018-07-14T10:54:43.925Z,101705.50
2018-07-14T10:57:11.988Z,101698.42
2018-07-14T10:59:40.898Z,101696.98
2018-07-14T11:02:09.056Z,101696.50
2018-07-14T11:04:37.202Z,101688.84
2018-07-14T11:07:05.467Z,101691.28
2018-07-14T11:09:33.561Z,101690.66
2018-07-14T11:12:01.699Z,101694.99
2018-07-14T11:14:29.816Z,101686.83
2018-07-14T11:16:58.111Z,101685.77
2018-07-14T11:19:26.232Z,101680.25
2018-07-14T11:21:54.388Z,101686.19
2018-07-14T11:24:22.487Z,101690.39
2018-07-14T11:26:50.641Z,101685.35
2018-07-14T11:29:18.801Z,101687.75
2018-07-14T11:31:47.008Z,101682.57
2018-07-14T11:34:15.113Z,101678.08
2018-07-14T11:36:43.230Z,101682.73
2018-07-14T11:39:11.342Z,101680.73
2018-07-14T11:41:39.471Z,101674.61
2018-07-14T11:44:07.604Z,101677.35
2018-07-14T11:46:35.717Z,101670.33
2018-07-14T11:49:03.871Z,101678.53
2018-07-14T11:51:32.001Z,101675.84
2018-07-14T11:54:00.219Z,101669.77
2018-07-14T11:56:28.380Z,101665.25
2018-07-14T11:58:56.468Z,101667.63
2018-07-14T12:01:24.661Z,101677.14
2018-07-14T12:03:52.791Z,101666.33
2018-07-14T12:06:20.953Z,101665.27
2018-07-14T12:08:49.049Z,101660.48
2018-07-14T12:11:17.202Z,101660.41
2018-07-14T12:13:45.308Z,101662.30
2018-07-14T12:16:13.417Z,101655.68
2018-07-14T12:18:41.577Z,101648.23
2018-07-14T12:21:10.540Z,101655.13
2018-07-14T12:23:38.644Z,101657.67
2018-07-14T12:26:06.792Z,101657.78
2018-07-14T12:28:35.115Z,101648.25
2018-07-14T12:31:03.310Z,101648.73
2018-07-14T12:33:31.449Z,101643.78
2018-07-14T12:35:59.692Z,101641.25
2018-07-14T12:38:28.083Z,101634.35
2018-07-14T12:40:56.339Z,101640.94
2018-07-14T12:43:24.825Z,101638.68
2018-07-14T12:45:53.044Z,101633.14
2018-07-14T12:48:21.229Z,101638.70
2018-07-14T12:50:49.920Z,101633.67
2018-07-14T12:53:18.117Z,101632.44
2018-07-14T12:55:46.304Z,101628.99
2018-07-14T12:58:14.495Z,101629.81
2018-07-14T13:00:42.695Z,101622.36
2018-07-14T13:03:10.842Z,101624.38
2018-07-14T13:05:39.005Z,101628.25
2018-07-14T13:08:07.175Z,101625.19
2018-07-14T13:10:35.333Z,101622.69
2018-07-14T13:13:03.461Z,101629.91
2018-07-14T13:15:31.664Z,101624.50
2018-07-14T13:17:59.834Z,101612.11
2018-07-14T13:20:27.984Z,101620.33
2018-07-14T13:22:56.326Z,101616.10
2018-07-14T13:25:24.548Z,101618.02
2018-07-14T13:27:52.760Z,101608.97
2018-07-14T13:30:20.915Z,101606.45
2018-07-14T13:32:49.067Z,101609.56
2018-07-14T13:35:17.232Z,101608.08
2018-07-14T13:37:45.413Z,101606.47
2018-07-14T13:40:13.608Z,101604.04
2018-07-14T13:42:41.760Z,101601.05
2018-07-14T13:45:11.372Z,101599.81
2018-07-14T13:47:39.564Z,101598.37
2018-07-14T13:50:07.739Z,101597.62
2018-07-14T13:52:35.938Z,101594.34
2018-07-14T13:55:04.208Z,101594.13
2018-07-14T13:57:32.374Z,101594.86
2018-07-14T14:00:00.555Z,101589.01
2018-07-14T14:02:28.705Z,101587.27
2018-07-14T14:04:56.835Z,101588.58
2018-07-14T14:07:24.960Z,101587.13
2018-07-14T14:09:53.119Z,101589.69
2018-07-14T14:12:21.268Z,101588.41
2018-07-14T14:14:49.453Z,101584.19
2018-07-14T14:17:17.588Z,101577.91
2018-07-14T14:19:45.719Z,101577.19
2018-07-14T14:22:13.864Z,101570.67
2018-07-14T14:24:42.052Z,101568.50
2018-07-14T14:27:10.192Z,101563.38
2018-07-14T14:29:38.331Z,101562.52
2018-07-14T14:32:06.640Z,101562.39
2018-07-14T14:34:34.797Z,101560.59
2018-07-14T14:37:02.913Z,101552.09
2018-07-14T14:39:31.472Z,101549.20
2018-07-14T14:41:59.945Z,101550.06
2018-07-14T14:44:28.086Z,101540.30
2018-07-14T14:46:56.280Z,101548.05
2018-07-14T14:49:24.385Z,101544.19
2018-07-14T14:51:52.558Z,101539.92
2018-07-14T14:54:20.679Z,101543.44
2018-07-14T14:56:48.841Z,101541.95
2018-07-14T14:59:16.995Z,101542.54
2018-07-14T15:01:45.120Z,101541.20
2018-07-14T15:04:13.315Z,101541.14
2018-07-14T15:06:41.404Z,101534.75
2018-07-14T15:09:09.648Z,101534.25
2018-07-14T15:11:37.684Z,101533.87
2018-07-14T15:14:05.848Z,101532.65
2018-07-14T15:16:34.081Z,101528.77
2018-07-14T15:19:02.111Z,101527.42
2018-07-14T15:21:31.302Z,101525.73
2018-07-14T15:23:59.439Z,101521.80
2018-07-14T15:26:27.530Z,101528.05
2018-07-14T15:28:55.656Z,101526.13
2018-07-14T15:31:24.235Z,101523.28
2018-07-14T15:33:52.333Z,101530.14
2018-07-14T15:36:20.460Z,101524.98
2018-07-14T15:38:48.591Z,101523.28
2018-07-14T15:41:16.692Z,101521.23
2018-07-14T15:43:44.866Z,101521.77
2018-07-14T15:46:12.990Z,101519.79
2018-07-14T15:48:41.060Z,101519.14
2018-07-14T15:51:09.188Z,101523.84
2018-07-14T15:53:37.299Z,101526.02
2018-07-14T15:56:06.081Z,101528.05
2018-07-14T15:58:34.185Z,101522.88
2018-07-14T16:01:02.339Z,101515.41
2018-07-14T16:03:30.435Z,101517.19
2018-07-14T16:05:58.728Z,101525.75
2018-07-14T16:08:26.841Z,101526.91
2018-07-14T16:10:54.964Z,101526.41
2018-07-14T16:13:23.208Z,101518.69
2018-07-14T16:15:51.445Z,101524.97
2018-07-14T16:18:19.653Z,101515.25
2018-07-14T16:20:48.967Z,101517.50
2018-07-14T16:23:23.432Z,101513.88
2018-07-14T16:25:57.051Z,101520.52
2018-07-14T16:28:28.521Z,101522.20
2018-07-14T16:30:57.395Z,101519.83
2018-07-14T16:33:28.708Z,101519.70
2018-07-14T16:35:57.645Z,101522.36
2018-07-14T16:38:25.824Z,101518.27
2018-07-14T16:40:54.053Z,101523.81
2018-07-14T16:43:22.203Z,101519.34
2018-07-14T16:45:50.401Z,101527.91
2018-07-14T16:48:18.564Z,101520.22
2018-07-14T16:50:46.769Z,101519.83
2018-07-14T16:53:14.988Z,101521.66
2018-07-14T16:55:43.310Z,101519.33
2018-07-14T16:58:11.410Z,101515.27
2018-07-14T17:00:39.541Z,101513.80
2018-07-14T17:03:07.664Z,101512.73
2018-07-14T17:05:35.827Z,101506.94
2018-07-14T17:08:03.929Z,101508.63
2018-07-14T17:10:32.076Z,101514.90
2018-07-14T17:13:00.161Z,101512.97
2018-07-14T17:15:28.252Z,101517.41
2018-07-14T17:17:56.373Z,101515.74
2018-07-14T17:20:24.574Z,101514.89
2018-07-14T17:22:52.787Z,101513.44
2018-07-14T17:25:20.907Z,101511.52
2018-07-14T17:27:49.016Z,101517.78
2018-07-14T17:30:17.195Z,101515.02
2018-07-14T17:32:45.297Z,101510.91
2018-07-14T17:35:13.391Z,101509.92
2018-07-14T17:37:41.464Z,101506.07
2018-07-14T17:40:09.546Z,101508.98
2018-07-14T17:42:37.634Z,101507.17
2018-07-14T17:45:06.187Z,101500.19
2018-07-14T17:47:34.472Z,101505.13
2018-07-14T17:50:02.876Z,101501.37
2018-07-14T17:52:31.065Z,101501.40
2018-07-14T17:54:59.228Z,101497.03
2018-07-14T17:57:27.333Z,101501.63
2018-07-14T17:59:55.471Z,101502.59
2018-07-14T18:02:23.569Z,101499.80
2018-07-14T18:04:51.668Z,101496.75
2018-07-14T18:07:19.767Z,101489.05
2018-07-14T18:09:47.889Z,101496.02
2018-07-14T18:12:15.983Z,101496.27
2018-07-14T18:14:44.168Z,101493.38
2018-07-14T18:17:12.256Z,101493.03
2018-07-14T18:39:19.855Z,101492.06
2018-07-14T18:55:02.109Z,101498.75
2018-07-14T18:57:31.072Z,101503.70
2018-07-14T18:59:59.247Z,101506.58
2018-07-14T19:02:27.410Z,101503.94
2018-07-14T19:04:55.578Z,101505.00
2018-07-14T19:07:23.735Z,101511.77
2018-07-14T19:09:51.945Z,101514.30
2018-07-14T19:12:20.107Z,101515.52
2018-07-14T19:14:48.353Z,101515.98
2018-07-14T19:17:16.561Z,101513.09
2018-07-14T19:19:45.077Z,101515.00
2018-07-14T19:22:13.238Z,101516.69
2018-07-14T19:24:41.360Z,101520.77
2018-07-14T19:27:09.507Z,101517.46
2018-07-14T19:29:38.070Z,101510.11
2018-07-14T19:32:06.620Z,101512.98
2018-07-14T19:34:34.757Z,101523.61
2018-07-14T19:37:02.926Z,101512.09
2018-07-14T19:39:31.056Z,101518.70
2018-07-14T19:41:59.269Z,101521.69
2018-07-14T19:44:27.425Z,101518.67
2018-07-14T19:46:55.656Z,101506.12
2018-07-14T19:49:23.787Z,101516.13
2018-07-14T19:51:51.990Z,101513.54
2018-07-14T19:54:20.142Z,101513.11
2018-07-14T19:56:48.323Z,101511.52
2018-07-14T19:59:16.471Z,101510.74
2018-07-14T20:01:44.663Z,101510.48
2018-07-14T20:04:12.840Z,101511.20
2018-07-14T20:06:41.082Z,101510.71
2018-07-14T20:09:09.232Z,101512.40
2018-07-14T20:11:37.438Z,101514.78
2018-07-14T20:14:05.759Z,101520.95
2018-07-14T20:16:33.920Z,101517.33
2018-07-14T20:19:02.037Z,101520.98
2018-07-14T20:21:30.154Z,101516.95
2018-07-14T20:23:58.303Z,101516.05
2018-07-14T20:26:26.503Z,101521.94
2018-07-14T20:28:54.668Z,101518.59
2018-07-14T20:31:22.836Z,101524.72
2018-07-14T20:33:50.986Z,101525.56
2018-07-14T20:36:19.096Z,101531.25
2018-07-14T20:38:47.247Z,101531.96
2018-07-14T20:41:15.419Z,101535.00
2018-07-14T20:43:43.519Z,101536.05
2018-07-14T20:46:11.670Z,101533.19
2018-07-14T20:48:39.818Z,101534.63
2018-07-14T20:51:07.921Z,101536.20
2018-07-14T20:53:36.081Z,101531.88
2018-07-14T20:56:04.253Z,101533.62
2018-07-14T20:58:32.445Z,101539.48
2018-07-14T21:01:00.708Z,101542.02
2018-07-14T21:03:28.890Z,101535.06
2018-07-14T21:05:57.174Z,101537.36
2018-07-14T21:08:25.348Z,101536.84
2018-07-14T21:10:53.803Z,101539.09
2018-07-14T21:13:22.085Z,101542.67
2018-07-14T21:15:50.233Z,101539.03
2018-07-14T21:18:18.426Z,101540.31
2018-07-14T21:20:46.650Z,101538.23
2018-07-14T21:23:14.763Z,101535.33
2018-07-14T21:25:42.942Z,101534.47
2018-07-14T21:28:11.091Z,101537.59
2018-07-14T21:30:39.314Z,101540.78
2018-07-14T21:33:07.443Z,101544.83
2018-07-14T21:35:35.736Z,101536.91
2018-07-14T21:38:03.857Z,101532.75
2018-07-14T21:40:32.003Z,101535.89
2018-07-14T21:43:00.156Z,101545.64
2018-07-14T21:45:28.367Z,101547.16
2018-07-14T21:47:56.574Z,101547.25
2018-07-14T21:50:24.753Z,101553.08
2018-07-14T21:52:52.948Z,101559.16
2018-07-14T21:55:21.085Z,101550.30
2018-07-14T21:57:49.216Z,101552.17
2018-07-14T22:00:32.030Z,101556.97
2018-07-14T22:03:01.114Z,101557.18
2018-07-14T22:05:29.260Z,101556.88
2018-07-14T22:07:57.365Z,101556.56
2018-07-14T22:10:25.615Z,101553.75
2018-07-14T22:12:54.030Z,101553.08
2018-07-14T22:15:22.917Z,101547.90
2018-07-14T22:17:51.274Z,101548.45
2018-07-14T22:20:19.427Z,101547.61
2018-07-14T22:22:47.633Z,101550.11
2018-07-14T22:25:15.762Z,101547.69
2018-07-14T22:27:43.889Z,101554.34
2018-07-14T22:30:12.048Z,101544.69
2018-07-14T22:32:40.186Z,101553.75
2018-07-14T22:35:08.346Z,101543.73
2018-07-14T22:37:36.455Z,101545.87
2018-07-14T22:40:04.672Z,101542.75
2018-07-14T22:42:32.853Z,101548.31
2018-07-14T22:45:01.007Z,101551.61
2018-07-14T22:47:29.163Z,101549.55
2018-07-14T22:49:57.280Z,101544.16
2018-07-14T22:52:25.428Z,101549.15
2018-07-14T22:54:54.412Z,101541.61
2018-07-14T22:57:22.530Z,101552.48
2018-07-14T22:59:50.640Z,101544.14
2018-07-14T23:02:18.809Z,101541.29
2018-07-14T23:04:46.950Z,101532.47
2018-07-14T23:07:15.057Z,101542.37
2018-07-14T23:09:43.861Z,101539.53
2018-07-14T23:12:11.914Z,101543.15
2018-07-14T23:14:40.047Z,101543.47
2018-07-14T23:17:08.222Z,101538.98
2018-07-14T23:19:36.376Z,101535.31
2018-07-14T23:22:04.532Z,101536.44
2018-07-14T23:24:32.645Z,101542.82
2018-07-14T23:27:00.749Z,101542.98
2018-07-14T23:29:28.876Z,101542.84
2018-07-14T23:31:56.996Z,101537.82
2018-07-14T23:34:25.096Z,101538.36
2018-07-14T23:36:53.223Z,101540.34
2018-07-14T23:39:21.339Z,101534.70
2018-07-14T23:41:49.481Z,101526.84
2018-07-14T23:44:17.607Z,101527.34
2018-07-14T23:46:45.795Z,101523.14
2018-07-14T23:49:13.885Z,101523.17
2018-07-14T23:51:41.987Z,101532.44
2018-07-14T23:54:10.113Z,101525.41
2018-07-14T23:56:38.260Z,101529.27
2018-07-14T23:59:06.341Z,101520.63
